Time;durP1;ratioP1;P1;durP2;ratioP2;P2;SDS_P1;SDS_P2;PMS_P1;PMS_P2;Temp;Humidity;BMP_temperature;BMP_pressure;BME280_temperature;BME280_humidity;BME280_pressure;Samples;Min_cycle;Max_cycle;Signal;HPM_P1;HPM_P2
2023/11/08 00:01:07;;;;;;;8.30;5.23;;;;;;;;;;5104206;28;20471;-80
2023/11/08 00:03:38;;;;;;;10.07;5.20;;;;;;;;;;5103317;28;20456;-78
2023/11/08 00:06:05;;;;;;;8.13;6.03;;;;;;;;;;5102449;28;20479;-79
2023/11/08 00:08:34;;;;;;;9.90;6.30;;;;;;;;;;5104699;28;20893;-79
2023/11/08 00:11:05;;;;;;;8.37;5.63;;;;;;;;;;5104259;28;20502;-80
2023/11/08 00:13:39;;;;;;;8.40;4.73;;;;;;;;;;5102505;28;20436;-80
2023/11/08 00:16:07;;;;;;;8.03;4.97;;;;;;;;;;5103934;28;20520;-81
2023/11/08 00:18:34;;;;;;;9.90;5.67;;;;;;;;;;5104684;28;20505;-79
2023/11/08 00:21:03;;;;;;;7.20;5.10;;;;;;;;;;5106841;28;20463;-80
2023/11/08 00:23:30;;;;;;;10.10;5.30;;;;;;;;;;5104451;28;20485;-80
2023/11/08 00:25:58;;;;;;;6.50;4.60;;;;;;;;;;5104434;28;20455;-79
2023/11/08 00:28:26;;;;;;;8.83;4.77;;;;;;;;;;5104901;28;20454;-79
2023/11/08 00:30:55;;;;;;;7.93;5.40;;;;;;;;;;5106648;28;20525;-79
2023/11/08 00:33:24;;;;;;;7.37;5.20;;;;;;;;;;5105729;28;20462;-79
2023/11/08 00:35:52;;;;;;;7.90;4.87;;;;;;;;;;5105202;28;20451;-79
2023/11/08 00:38:19;;;;;;;7.30;4.83;;;;;;;;;;5106712;28;20565;-80
2023/11/08 00:40:47;;;;;;;8.17;4.77;;;;;;;;;;5109660;28;20444;-81
2023/11/08 00:43:15;;;;;;;9.73;6.13;;;;;;;;;;5106795;28;20444;-81
2023/11/08 00:45:42;;;;;;;6.97;4.00;;;;;;;;;;5108876;28;20444;-81
2023/11/08 00:48:12;;;;;;;7.73;5.40;;;;;;;;;;5108040;28;20450;-80
2023/11/08 00:50:39;;;;;;;12.40;5.50;;;;;;;;;;5107633;28;20491;-80
2023/11/08 00:53:10;;;;;;;7.27;4.30;;;;;;;;;;5105642;28;20462;-79
2023/11/08 00:55:38;;;;;;;8.30;4.97;;;;;;;;;;5106248;28;20514;-79
2023/11/08 00:58:08;;;;;;;8.47;5.20;;;;;;;;;;5107863;28;20456;-80
2023/11/08 01:00:36;;;;;;;9.40;4.50;;;;;;;;;;5108409;28;20459;-80
2023/11/08 01:03:04;;;;;;;6.93;4.53;;;;;;;;;;5110505;28;20466;-81
2023/11/08 01:05:33;;;;;;;6.10;4.10;;;;;;;;;;5105739;28;20573;-80
2023/11/08 01:08:00;;;;;;;7.60;4.90;;;;;;;;;;5107728;28;20452;-78
2023/11/08 01:10:28;;;;;;;8.83;5.80;;;;;;;;;;5106159;28;20545;-80
2023/11/08 01:12:56;;;;;;;6.87;4.67;;;;;;;;;;5103675;28;20538;-81
2023/11/08 01:15:24;;;;;;;13.57;4.87;;;;;;;;;;5106188;28;20439;-81
2023/11/08 01:17:52;;;;;;;8.53;4.00;;;;;;;;;;5104232;28;20471;-81
2023/11/08 01:20:20;;;;;;;12.70;5.57;;;;;;;;;;5104446;28;20458;-80
2023/11/08 01:22:50;;;;;;;6.67;4.53;;;;;;;;;;5103479;28;20462;-78
2023/11/08 01:25:18;;;;;;;8.53;4.87;;;;;;;;;;5100538;28;20476;-80
2023/11/08 01:27:45;;;;;;;7.60;4.63;;;;;;;;;;5103467;28;20524;-80
2023/11/08 01:30:15;;;;;;;6.10;4.43;;;;;;;;;;5106544;28;20495;-80
2023/11/08 01:32:44;;;;;;;11.00;4.37;;;;;;;;;;5103465;28;20677;-80
2023/11/08 01:35:12;;;;;;;9.47;5.20;;;;;;;;;;5103728;28;20459;-81
2023/11/08 01:37:45;;;;;;;8.00;4.57;;;;;;;;;;5103093;28;20800;-79
2023/11/08 01:40:20;;;;;;;8.27;4.20;;;;;;;;;;5105860;28;20477;-80
2023/11/08 01:42:49;;;;;;;9.53;4.57;;;;;;;;;;5104543;28;20471;-81
2023/11/08 01:45:17;;;;;;;4.80;3.90;;;;;;;;;;5102491;28;20897;-79
2023/11/08 01:47:45;;;;;;;5.37;3.70;;;;;;;;;;5104704;28;20962;-80
2023/11/08 01:50:15;;;;;;;7.40;4.07;;;;;;;;;;5107553;28;20487;-82
2023/11/08 01:52:48;;;;;;;8.77;5.07;;;;;;;;;;5108092;28;20489;-79
2023/11/08 01:55:17;;;;;;;8.83;5.20;;;;;;;;;;5111938;28;20659;-81
2023/11/08 01:57:51;;;;;;;9.60;4.60;;;;;;;;;;5107268;28;20482;-80
2023/11/08 02:00:20;;;;;;;5.23;3.83;;;;;;;;;;5107261;28;20486;-80
2023/11/08 02:02:48;;;;;;;9.40;4.30;;;;;;;;;;5107008;28;20467;-81
2023/11/08 02:05:16;;;;;;;7.50;4.13;;;;;;;;;;5103558;28;20467;-79
2023/11/08 02:07:44;;;;;;;5.40;4.70;;;;;;;;;;5107343;28;20463;-80
2023/11/08 02:10:14;;;;;;;7.53;4.67;;;;;;;;;;5105172;28;20480;-80
2023/11/08 02:12:44;;;;;;;10.70;4.80;;;;;;;;;;5104981;28;20505;-80
2023/11/08 02:15:15;;;;;;;11.27;4.97;;;;;;;;;;5103774;28;20521;-81
2023/11/08 02:17:46;;;;;;;8.03;4.60;;;;;;;;;;5106329;28;20463;-80
2023/11/08 02:20:19;;;;;;;6.60;4.30;;;;;;;;;;5104410;28;20885;-79
2023/11/08 02:22:47;;;;;;;8.93;5.23;;;;;;;;;;5106394;28;20656;-80
2023/11/08 02:25:17;;;;;;;8.50;4.70;;;;;;;;;;5107523;28;20452;-79
2023/11/08 02:27:48;;;;;;;5.33;4.37;;;;;;;;;;5105281;28;20451;-80
2023/11/08 02:30:17;;;;;;;7.20;4.20;;;;;;;;;;5106693;28;20515;-80
2023/11/08 02:32:45;;;;;;;5.37;3.73;;;;;;;;;;5107073;28;20443;-80
2023/11/08 02:35:12;;;;;;;7.77;4.97;;;;;;;;;;5107572;28;20439;-80
2023/11/08 02:37:42;;;;;;;10.30;4.40;;;;;;;;;;5110498;28;20880;-81
2023/11/08 02:40:10;;;;;;;9.10;4.77;;;;;;;;;;5110843;28;20459;-80
2023/11/08 02:42:41;;;;;;;5.60;4.50;;;;;;;;;;5110807;28;20448;-81
2023/11/08 02:45:09;;;;;;;6.97;4.77;;;;;;;;;;5110892;28;20526;-79
2023/11/08 02:47:37;;;;;;;7.13;5.30;;;;;;;;;;5107827;28;20456;-81
2023/11/08 02:50:08;;;;;;;8.83;5.27;;;;;;;;;;5109227;28;20451;-81
2023/11/08 02:52:36;;;;;;;8.10;4.70;;;;;;;;;;5109230;28;20475;-80
2023/11/08 02:55:04;;;;;;;7.67;4.90;;;;;;;;;;5104729;28;20460;-81
2023/11/08 02:57:35;;;;;;;10.70;5.03;;;;;;;;;;5108217;28;20460;-81
2023/11/08 03:00:10;;;;;;;9.50;4.97;;;;;;;;;;5107696;28;20750;-81
2023/11/08 03:02:39;;;;;;;7.93;4.13;;;;;;;;;;5106767;28;20439;-79
2023/11/08 03:05:08;;;;;;;6.50;4.10;;;;;;;;;;5107141;28;20632;-80
2023/11/08 03:07:36;;;;;;;5.20;4.13;;;;;;;;;;5106241;28;20516;-81
2023/11/08 03:10:09;;;;;;;7.60;3.87;;;;;;;;;;5106187;28;20452;-80
2023/11/08 03:12:38;;;;;;;7.13;4.30;;;;;;;;;;5107078;28;20471;-80
2023/11/08 03:15:09;;;;;;;6.10;3.77;;;;;;;;;;5105949;28;20542;-81
2023/11/08 03:17:37;;;;;;;5.30;3.60;;;;;;;;;;5104759;28;20444;-79
2023/11/08 03:20:10;;;;;;;5.60;4.00;;;;;;;;;;5106485;28;20457;-79
2023/11/08 03:22:39;;;;;;;7.23;4.67;;;;;;;;;;5104255;28;20538;-79
2023/11/08 03:25:11;;;;;;;5.17;3.10;;;;;;;;;;5104374;28;20463;-79
2023/11/08 03:27:42;;;;;;;7.53;4.70;;;;;;;;;;5105466;28;20684;-78
2023/11/08 03:30:14;;;;;;;6.73;3.60;;;;;;;;;;5106837;28;20937;-80
2023/11/08 03:32:43;;;;;;;5.93;4.20;;;;;;;;;;5106118;28;20452;-79
2023/11/08 03:35:11;;;;;;;6.33;3.93;;;;;;;;;;5105586;28;20980;-78
2023/11/08 03:37:42;;;;;;;9.30;4.30;;;;;;;;;;5105611;28;20451;-78
2023/11/08 03:40:11;;;;;;;5.00;3.57;;;;;;;;;;5105413;28;20867;-78
2023/11/08 03:42:46;;;;;;;9.23;4.20;;;;;;;;;;5105178;28;20886;-80
2023/11/08 03:45:15;;;;;;;6.87;4.30;;;;;;;;;;5104506;28;20452;-80
2023/11/08 03:47:45;;;;;;;7.97;3.20;;;;;;;;;;5106158;28;20462;-81
2023/11/08 03:50:16;;;;;;;4.23;3.30;;;;;;;;;;5107652;28;20466;-81
2023/11/08 03:52:47;;;;;;;4.87;3.20;;;;;;;;;;5104759;28;20613;-81
2023/11/08 03:55:15;;;;;;;6.37;3.97;;;;;;;;;;5107563;28;20512;-81
2023/11/08 03:57:47;;;;;;;7.57;2.90;;;;;;;;;;5106188;28;20486;-80
2023/11/08 04:00:22;;;;;;;5.57;3.00;;;;;;;;;;5106883;28;20515;-79
2023/11/08 04:02:51;;;;;;;3.90;2.67;;;;;;;;;;5105752;28;20465;-80
2023/11/08 04:05:19;;;;;;;6.60;3.73;;;;;;;;;;5104958;28;20505;-80
2023/11/08 04:07:47;;;;;;;5.30;3.10;;;;;;;;;;5105616;28;20719;-79
2023/11/08 04:10:19;;;;;;;3.97;2.47;;;;;;;;;;5102584;28;20455;-80
2023/11/08 04:18:51;;;;;;;5.67;2.93;;;;;;;;;;5175649;22;20518;-76
2023/11/08 04:21:21;;;;;;;6.00;3.57;;;;;;;;;;5097914;28;20506;-77
2023/11/08 04:23:49;;;;;;;4.53;2.80;;;;;;;;;;5098713;28;20455;-76
2023/11/08 04:26:17;;;;;;;7.23;3.13;;;;;;;;;;5099665;28;20464;-78
2023/11/08 04:28:46;;;;;;;4.40;2.80;;;;;;;;;;5100091;28;20456;-78
2023/11/08 04:31:14;;;;;;;3.93;2.50;;;;;;;;;;5097982;28;20487;-77
2023/11/08 04:33:46;;;;;;;5.40;2.80;;;;;;;;;;5097971;28;20709;-76
2023/11/08 04:36:17;;;;;;;4.07;2.70;;;;;;;;;;5096318;28;20459;-77
2023/11/08 04:38:48;;;;;;;5.03;2.50;;;;;;;;;;5097509;28;20460;-77
2023/11/08 04:41:48;;;;;;;6.97;3.10;;;;;;;;;;5080248;28;20445;-76
2023/11/08 04:44:44;;;;;;;6.90;3.60;;;;;;;;;;5090077;28;20799;-77
2023/11/08 04:47:18;;;;;;;6.00;3.57;;;;;;;;;;5097314;28;20463;-77
2023/11/08 04:50:07;;;;;;;4.60;3.23;;;;;;;;;;5098635;28;20854;-76
2023/11/08 04:52:35;;;;;;;6.20;3.00;;;;;;;;;;5096083;28;20499;-77
2023/11/08 05:00:43;;;;;;;5.50;3.43;;;;;;;;;;5104677;28;20750;-78
2023/11/08 05:03:14;;;;;;;9.33;3.80;;;;;;;;;;5097046;28;20461;-77
2023/11/08 05:05:44;;;;;;;7.87;4.10;;;;;;;;;;5100330;28;20446;-77
2023/11/08 05:08:12;;;;;;;4.50;2.33;;;;;;;;;;5098904;28;20440;-76
2023/11/08 05:10:48;;;;;;;7.80;3.87;;;;;;;;;;5100622;28;20446;-77
2023/11/08 05:13:21;;;;;;;9.30;5.10;;;;;;;;;;5101358;28;20448;-78
2023/11/08 05:16:00;;;;;;;6.00;3.80;;;;;;;;;;5101366;28;20454;-78
2023/11/08 05:18:30;;;;;;;6.93;3.70;;;;;;;;;;5099892;28;20912;-78
2023/11/08 05:23:53;;;;;;;6.10;3.57;;;;;;;;;;5095051;28;20490;-76
2023/11/08 05:26:27;;;;;;;7.60;3.83;;;;;;;;;;5098355;28;20443;-78
2023/11/08 05:29:13;;;;;;;6.70;4.33;;;;;;;;;;5098984;28;20462;-77
2023/11/08 05:31:43;;;;;;;5.20;3.63;;;;;;;;;;5100213;28;20671;-77
2023/11/08 05:34:34;;;;;;;6.50;3.83;;;;;;;;;;5099179;28;20505;-75
2023/11/08 05:37:11;;;;;;;5.30;4.20;;;;;;;;;;5099789;28;20536;-76
2023/11/08 05:40:14;;;;;;;5.13;3.63;;;;;;;;;;5098595;28;20936;-76
2023/11/08 05:43:05;;;;;;;5.10;4.00;;;;;;;;;;5096116;28;20534;-77
2023/11/08 05:45:35;;;;;;;5.87;4.07;;;;;;;;;;5098573;28;21018;-77
2023/11/08 05:50:49;;;;;;;6.30;4.10;;;;;;;;;;5102080;28;20535;-78
2023/11/08 05:53:29;;;;;;;8.23;4.33;;;;;;;;;;5088699;28;20483;-76
2023/11/08 05:59:25;;;;;;;6.40;4.40;;;;;;;;;;5100282;28;20475;-76
2023/11/08 06:02:00;;;;;;;4.97;3.80;;;;;;;;;;5101870;28;20460;-76
2023/11/08 06:04:53;;;;;;;5.27;4.60;;;;;;;;;;5083543;28;20567;-78
2023/11/08 06:07:40;;;;;;;7.30;3.70;;;;;;;;;;5092928;28;20606;-76
2023/11/08 06:12:40;;;;;;;5.73;3.80;;;;;;;;;;5094038;28;20496;-78
2023/11/08 06:15:31;;;;;;;5.67;3.87;;;;;;;;;;5082967;28;20456;-77
2023/11/08 06:23:18;;;;;;;9.40;4.03;;;;;;;;;;5094269;28;20499;-75
2023/11/08 06:25:56;;;;;;;;;;;;;;;;;;;;;
2023/11/08 06:28:37;;;;;;;6.63;4.67;;;;;;;;;;5101969;28;20511;-76
2023/11/08 06:31:07;;;;;;;5.17;3.53;;;;;;;;;;5095276;28;20865;-76
2023/11/08 06:39:31;;;;;;;10.30;6.23;;;;;;;;;;5076658;28;20448;-76
2023/11/08 06:45:11;;;;;;;6.80;4.40;;;;;;;;;;5067059;28;20505;-76
2023/11/08 06:47:49;;;;;;;4.70;4.20;;;;;;;;;;5072384;28;20433;-77
2023/11/08 06:50:20;;;;;;;7.73;4.70;;;;;;;;;;5073710;28;20460;-76
2023/11/08 06:53:13;;;;;;;10.30;4.50;;;;;;;;;;5088489;28;20480;-78
2023/11/08 06:55:46;;;;;;;8.60;4.20;;;;;;;;;;5089884;28;20491;-77
2023/11/08 06:58:16;;;;;;;5.57;3.60;;;;;;;;;;5084968;28;20529;-78
2023/11/08 07:00:53;;;;;;;7.23;4.20;;;;;;;;;;5090101;28;20666;-76
2023/11/08 07:03:26;;;;;;;7.27;3.83;;;;;;;;;;5083921;28;20466;-76
2023/11/08 07:05:57;;;;;;;5.73;4.30;;;;;;;;;;5086753;28;20641;-75
2023/11/08 07:08:28;;;;;;;6.23;4.20;;;;;;;;;;5084192;28;20598;-76
2023/11/08 07:14:05;;;;;;;6.70;4.37;;;;;;;;;;5071195;28;20547;-77
2023/11/08 07:19:49;;;;;;;6.40;3.80;;;;;;;;;;5071073;28;20458;-76
2023/11/08 07:22:31;;;;;;;7.70;4.60;;;;;;;;;;5074848;28;20451;-75
2023/11/08 07:25:37;;;;;;;7.23;4.30;;;;;;;;;;5096176;28;20455;-76
2023/11/08 07:28:26;;;;;;;6.33;4.23;;;;;;;;;;5017117;28;20459;-76
2023/11/08 07:31:22;;;;;;;8.23;4.70;;;;;;;;;;5090403;28;20534;-76
2023/11/08 07:34:23;;;;;;;11.27;4.67;;;;;;;;;;5073181;28;20445;-76
2023/11/08 07:37:00;;;;;;;5.23;4.00;;;;;;;;;;5068211;28;20969;-76
2023/11/08 07:39:34;;;;;;;6.53;4.53;;;;;;;;;;5071680;28;20439;-75
2023/11/08 07:42:12;;;;;;;5.50;4.20;;;;;;;;;;5086048;28;20463;-76
2023/11/08 07:45:04;;;;;;;8.30;4.83;;;;;;;;;;5084030;28;20494;-76
2023/11/08 07:48:02;;;;;;;5.47;3.97;;;;;;;;;;5091171;28;20463;-77
2023/11/08 07:50:38;;;;;;;7.10;3.77;;;;;;;;;;5090080;28;20455;-76
2023/11/08 07:53:14;;;;;;;10.67;5.13;;;;;;;;;;5085608;28;20487;-75
2023/11/08 07:55:54;;;;;;;6.97;4.73;;;;;;;;;;5093327;28;20463;-76
2023/11/08 08:01:25;;;;;;;6.83;4.30;;;;;;;;;;5094922;28;20447;-76
2023/11/08 08:04:05;;;;;;;10.13;5.33;;;;;;;;;;5094588;28;20451;-76
2023/11/08 08:06:43;;;;;;;6.53;4.37;;;;;;;;;;5073879;28;20877;-76
2023/11/08 08:09:26;;;;;;;7.03;4.43;;;;;;;;;;5073122;28;20542;-77
2023/11/08 08:11:58;;;;;;;12.73;4.47;;;;;;;;;;5059785;28;20452;-78
2023/11/08 08:17:50;;;;;;;5.80;3.93;;;;;;;;;;5031730;28;20507;-77
2023/11/08 08:21:01;;;;;;;5.40;3.50;;;;;;;;;;5076555;28;20468;-76
2023/11/08 08:27:05;;;;;;;6.50;4.10;;;;;;;;;;5051578;28;20524;-77
2023/11/08 08:30:01;;;;;;;6.03;3.97;;;;;;;;;;5041001;28;20498;-76
2023/11/08 08:38:55;;;;;;;9.17;4.87;;;;;;;;;;4988551;28;21041;-75
2023/11/08 08:41:23;;;;;;;14.13;4.07;;;;;;;;;;5061326;22;20870;-79
2023/11/08 08:43:52;;;;;;;6.47;3.70;;;;;;;;;;5118648;28;20435;-80
2023/11/08 08:46:20;;;;;;;6.10;3.97;;;;;;;;;;5117147;28;20873;-80
2023/11/08 08:48:51;;;;;;;5.53;3.93;;;;;;;;;;5119303;28;20447;-79
2023/11/08 08:51:19;;;;;;;6.57;3.73;;;;;;;;;;5128835;28;20458;-80
2023/11/08 08:53:47;;;;;;;4.60;3.17;;;;;;;;;;5126174;28;20478;-80
2023/11/08 08:56:17;;;;;;;5.87;3.53;;;;;;;;;;5124999;28;20462;-78
2023/11/08 08:58:47;;;;;;;5.73;4.30;;;;;;;;;;5116309;28;20483;-79
2023/11/08 09:01:18;;;;;;;5.83;4.40;;;;;;;;;;5113507;28;20454;-80
2023/11/08 09:03:52;;;;;;;7.00;3.70;;;;;;;;;;5120756;28;20934;-81
2023/11/08 09:06:24;;;;;;;7.97;4.30;;;;;;;;;;5127576;28;20484;-81
2023/11/08 09:09:11;;;;;;;7.40;3.90;;;;;;;;;;5133534;28;20449;-79
2023/11/08 09:11:41;;;;;;;7.90;4.40;;;;;;;;;;5129853;28;20450;-80
2023/11/08 09:14:10;;;;;;;8.53;2.93;;;;;;;;;;5118801;28;20490;-79
2023/11/08 09:16:52;;;;;;;11.27;4.73;;;;;;;;;;5121645;28;20463;-80
2023/11/08 09:19:22;;;;;;;9.13;5.57;;;;;;;;;;5124011;28;20469;-79
2023/11/08 09:21:55;;;;;;;7.73;4.53;;;;;;;;;;5115183;28;20451;-81
2023/11/08 09:24:27;;;;;;;6.83;3.73;;;;;;;;;;5109946;28;20469;-81
2023/11/08 09:37:48;;;;;;;7.40;3.23;;;;;;;;;;5043456;28;20505;-80
2023/11/08 09:40:47;;;;;;;7.40;3.80;;;;;;;;;;5048428;28;20477;-81
2023/11/08 09:43:33;;;;;;;3.93;2.77;;;;;;;;;;5026962;28;20451;-80
2023/11/08 09:46:31;;;;;;;4.93;3.30;;;;;;;;;;5030992;28;20575;-80
2023/11/08 09:49:20;;;;;;;6.70;5.17;;;;;;;;;;5026144;28;20462;-81
2023/11/08 09:51:48;;;;;;;9.30;5.30;;;;;;;;;;5027554;28;20467;-81
2023/11/08 09:54:19;;;;;;;6.30;4.37;;;;;;;;;;5048774;28;20478;-80
2023/11/08 09:56:58;;;;;;;8.83;5.00;;;;;;;;;;5044407;28;20465;-80
2023/11/08 09:59:30;;;;;;;10.30;4.87;;;;;;;;;;5044816;28;20537;-79
2023/11/08 10:01:59;;;;;;;14.77;5.20;;;;;;;;;;5043323;28;20492;-81
2023/11/08 10:04:34;;;;;;;14.83;5.00;;;;;;;;;;5045820;28;20454;-81
2023/11/08 10:07:04;;;;;;;7.70;4.70;;;;;;;;;;5047546;28;20481;-79
2023/11/08 10:09:39;;;;;;;8.30;4.13;;;;;;;;;;5045761;28;20458;-79
2023/11/08 10:12:08;;;;;;;7.30;4.60;;;;;;;;;;5039344;28;20481;-80
2023/11/08 10:14:41;;;;;;;9.37;4.60;;;;;;;;;;5043168;28;20516;-79
2023/11/08 10:17:10;;;;;;;9.00;6.20;;;;;;;;;;5045890;28;20493;-78
2023/11/08 10:19:45;;;;;;;9.60;6.20;;;;;;;;;;5043468;28;20449;-78
2023/11/08 10:22:22;;;;;;;6.50;4.50;;;;;;;;;;5042023;28;20702;-79
2023/11/08 10:24:56;;;;;;;11.83;4.90;;;;;;;;;;5040593;28;20522;-79
2023/11/08 10:27:26;;;;;;;12.93;5.40;;;;;;;;;;5041360;28;20457;-78
2023/11/08 10:29:56;;;;;;;12.40;4.60;;;;;;;;;;5043925;28;20466;-79
2023/11/08 10:32:25;;;;;;;7.20;4.67;;;;;;;;;;5042494;28;20461;-78
2023/11/08 10:34:55;;;;;;;7.13;4.20;;;;;;;;;;5043145;28;20474;-81
2023/11/08 10:37:26;;;;;;;8.50;5.50;;;;;;;;;;5041401;28;20497;-80
2023/11/08 10:39:59;;;;;;;6.43;5.07;;;;;;;;;;5027775;28;20463;-79
2023/11/08 10:42:33;;;;;;;9.77;6.57;;;;;;;;;;5033286;28;20462;-80
2023/11/08 10:45:08;;;;;;;9.93;6.37;;;;;;;;;;5051878;28;20465;-80
2023/11/08 10:47:39;;;;;;;7.33;4.20;;;;;;;;;;5053015;28;20527;-79
2023/11/08 10:50:07;;;;;;;8.23;4.67;;;;;;;;;;5040622;28;20746;-81
2023/11/08 10:52:49;;;;;;;6.63;4.00;;;;;;;;;;5041983;28;20658;-80
2023/11/08 10:55:25;;;;;;;8.73;4.63;;;;;;;;;;5033347;28;20454;-80
2023/11/08 10:58:03;;;;;;;6.60;4.03;;;;;;;;;;5033119;28;20442;-81
2023/11/08 11:00:43;;;;;;;5.47;3.53;;;;;;;;;;5033660;28;20446;-80
2023/11/08 11:03:20;;;;;;;12.53;4.10;;;;;;;;;;5040100;28;20462;-79
2023/11/08 11:06:17;;;;;;;8.37;4.13;;;;;;;;;;5044733;28;20870;-79
2023/11/08 11:08:54;;;;;;;7.07;3.47;;;;;;;;;;5041832;28;20491;-80
2023/11/08 11:11:52;;;;;;;7.17;3.60;;;;;;;;;;5033118;28;20468;-81
2023/11/08 14:06:07;;;;;;;5.13;1.97;;;;;;;;;;1097197;26;20745;-80
2023/11/08 14:08:59;;;;;;;4.80;2.40;;;;;;;;;;5085239;28;20588;-76
2023/11/08 14:15:04;;;;;;;5.27;2.40;;;;;;;;;;5036407;28;20864;-76
2023/11/08 14:24:22;;;;;;;5.40;3.20;;;;;;;;;;5067027;28;20619;-78
2023/11/08 14:30:42;;;;;;;9.53;3.63;;;;;;;;;;5056998;28;20449;-78
